createdAt,value
2023-01-23T00:00:19.464Z,91.57
2023-01-23T00:03:21.378Z,91.74
2023-01-23T00:06:18.217Z,91.71
2023-01-23T00:09:11.215Z,91.48
2023-01-23T00:12:05.436Z,91.22
2023-01-23T00:14:58.656Z,91.36
2023-01-23T00:17:42.655Z,91.75
2023-01-23T00:20:30.708Z,91.52
2023-01-23T00:23:23.534Z,91.33
2023-01-23T00:26:18.722Z,91.34
2023-01-23T00:29:11.683Z,91.37
2023-01-23T00:32:05.117Z,91.11
2023-01-23T00:34:58.772Z,90.24
2023-01-23T00:37:52.885Z,90.43
2023-01-23T00:40:38.391Z,90.52
2023-01-23T00:43:24.348Z,91.10
2023-01-23T00:46:17.529Z,91.73
2023-01-23T00:49:10.028Z,92.07
2023-01-23T00:52:02.963Z,92.27
2023-01-23T00:54:56.114Z,92.52
2023-01-23T00:57:48.861Z,92.51
2023-01-23T01:00:42.295Z,92.36
2023-01-23T01:03:35.216Z,91.42
2023-01-23T01:06:29.986Z,90.51
2023-01-23T01:09:22.957Z,90.50
2023-01-23T01:12:16.528Z,90.68
2023-01-23T01:15:12.192Z,90.84
2023-01-23T01:18:06.544Z,90.65
2023-01-23T01:20:52.759Z,90.93
2023-01-23T01:23:40.278Z,91.48
2023-01-23T01:26:33.556Z,91.27
2023-01-23T01:29:26.886Z,90.97
2023-01-23T01:32:19.732Z,91.00
2023-01-23T01:35:14.960Z,90.45
2023-01-23T01:38:00.682Z,90.17
2023-01-23T01:40:52.831Z,90.56
2023-01-23T01:43:46.417Z,90.81
2023-01-23T01:46:41.241Z,90.65
2023-01-23T01:49:35.529Z,90.69
2023-01-23T01:52:23.607Z,91.05
2023-01-23T01:55:16.698Z,91.18
2023-01-23T01:58:02.267Z,91.52
2023-01-23T02:00:55.489Z,90.72
2023-01-23T02:03:51.752Z,90.74
2023-01-23T02:06:38.731Z,90.59
2023-01-23T02:09:33.787Z,90.53
2023-01-23T02:12:28.330Z,90.70
2023-01-23T02:15:24.521Z,90.74
2023-01-23T02:18:10.320Z,91.69
2023-01-23T02:21:07.585Z,92.15
2023-01-23T02:24:19.744Z,91.47
2023-01-23T02:27:12.865Z,91.42
2023-01-23T02:29:58.776Z,91.62
2023-01-23T02:32:51.766Z,91.46
2023-01-23T02:35:44.629Z,90.74
2023-01-23T02:38:42.409Z,90.59
2023-01-23T02:41:37.451Z,90.81
2023-01-23T02:44:32.094Z,91.11
2023-01-23T02:47:25.517Z,91.67
2023-01-23T02:50:19.211Z,91.55
2023-01-23T02:53:13.611Z,92.22
2023-01-23T02:56:09.042Z,92.34
2023-01-23T02:59:20.190Z,92.16
2023-01-23T03:02:04.338Z,92.40
2023-01-23T03:04:57.300Z,91.99
2023-01-23T03:07:50.208Z,91.60
2023-01-23T03:10:34.572Z,90.44
2023-01-23T03:13:27.496Z,90.19
2023-01-23T03:16:21.683Z,90.76
2023-01-23T03:19:14.586Z,90.61
2023-01-23T03:22:09.503Z,90.60
2023-01-23T03:24:57.935Z,90.57
2023-01-23T03:27:52.320Z,90.93
2023-01-23T03:30:45.356Z,90.93
2023-01-23T03:33:31.580Z,90.89
2023-01-23T03:36:18.407Z,91.36
2023-01-23T03:39:28.929Z,91.48
2023-01-23T03:42:21.977Z,91.38
2023-01-23T03:45:16.287Z,91.35
2023-01-23T03:48:09.813Z,91.74
2023-01-23T03:50:56.776Z,91.69
2023-01-23T03:53:49.918Z,91.80
2023-01-23T03:56:36.587Z,91.94
2023-01-23T03:59:22.724Z,91.73
2023-01-23T04:02:15.867Z,91.81
2023-01-23T04:05:01.804Z,91.89
2023-01-23T04:07:54.770Z,92.29
2023-01-23T04:10:48.532Z,92.24
2023-01-23T04:13:41.583Z,91.95
2023-01-23T04:16:34.875Z,91.09
2023-01-23T04:19:21.227Z,91.10
2023-01-23T04:22:14.153Z,91.68
2023-01-23T04:25:06.743Z,92.14
2023-01-23T04:27:59.753Z,92.17
2023-01-23T04:30:53.686Z,91.71
2023-01-23T04:33:49.641Z,91.81
2023-01-23T04:36:44.000Z,91.84
2023-01-23T04:39:37.049Z,91.62
2023-01-23T04:42:23.710Z,91.66
2023-01-23T04:45:28.733Z,91.18
2023-01-23T04:48:22.537Z,90.81
2023-01-23T04:51:15.649Z,90.75
2023-01-23T04:54:10.247Z,91.13
2023-01-23T04:57:03.515Z,91.19
2023-01-23T04:59:58.121Z,90.36
2023-01-23T05:02:47.153Z,90.28
2023-01-23T05:05:40.616Z,90.51
2023-01-23T05:08:33.690Z,90.70
2023-01-23T05:11:29.420Z,91.03
2023-01-23T05:14:24.472Z,91.16
2023-01-23T05:17:02.825Z,91.45
2023-01-23T05:19:52.581Z,91.69
2023-01-23T05:22:39.589Z,92.47
2023-01-23T05:25:27.420Z,92.59
2023-01-23T05:28:22.225Z,92.42
2023-01-23T05:31:15.070Z,92.41
2023-01-23T05:34:08.202Z,91.80
2023-01-23T05:37:01.427Z,91.23
2023-01-23T05:39:54.883Z,91.23
2023-01-23T05:42:47.845Z,91.25
2023-01-23T05:45:46.702Z,91.16
2023-01-23T05:48:39.609Z,90.87
2023-01-23T05:51:34.130Z,91.40
2023-01-23T05:54:26.234Z,91.34
2023-01-23T05:57:19.288Z,90.49
2023-01-23T06:00:15.623Z,90.79
2023-01-23T06:03:08.853Z,91.17
2023-01-23T06:06:05.276Z,91.40
2023-01-23T06:08:51.058Z,91.51
2023-01-23T06:11:43.949Z,91.20
2023-01-23T06:14:36.138Z,90.91
2023-01-23T06:17:30.634Z,90.70
2023-01-23T06:20:23.725Z,91.37
2023-01-23T06:23:16.737Z,91.44
2023-01-23T06:26:10.659Z,90.94
2023-01-23T06:29:03.430Z,91.53
2023-01-23T06:31:56.369Z,91.68
2023-01-23T06:34:49.308Z,91.89
2023-01-23T06:37:42.552Z,91.32
2023-01-23T06:40:36.188Z,90.97
2023-01-23T06:43:29.866Z,91.21
2023-01-23T06:46:23.001Z,91.08
2023-01-23T06:49:15.995Z,91.20
2023-01-23T06:52:09.367Z,91.61
2023-01-23T06:55:02.052Z,91.56
2023-01-23T06:57:55.751Z,91.36
2023-01-23T07:00:48.781Z,91.18
2023-01-23T07:03:42.142Z,91.20
2023-01-23T07:06:35.271Z,91.05
2023-01-23T07:09:29.075Z,91.12
2023-01-23T07:12:25.388Z,91.49
2023-01-23T07:15:13.973Z,91.47
2023-01-23T07:18:07.045Z,91.51
2023-01-23T07:21:02.060Z,91.33
2023-01-23T07:23:54.808Z,91.23
2023-01-23T07:26:37.790Z,91.15
2023-01-23T07:29:31.177Z,91.17
2023-01-23T07:32:24.022Z,91.30
2023-01-23T07:35:16.962Z,91.14
2023-01-23T07:38:10.043Z,91.06
2023-01-23T07:41:03.506Z,91.09
2023-01-23T07:43:50.423Z,91.57
2023-01-23T07:46:43.816Z,91.37
2023-01-23T07:49:36.786Z,91.73
2023-01-23T07:52:29.935Z,91.25
2023-01-23T07:55:23.019Z,91.10
2023-01-23T07:58:16.213Z,90.76
2023-01-23T08:01:17.594Z,90.60
2023-01-23T08:04:10.723Z,90.72
2023-01-23T08:07:03.971Z,90.20
2023-01-23T08:09:57.109Z,89.74
2023-01-23T08:12:54.591Z,89.57
2023-01-23T08:15:48.431Z,89.59
2023-01-23T08:18:41.614Z,89.55
2023-01-23T08:21:34.945Z,89.38
2023-01-23T08:24:25.343Z,89.53
2023-01-23T08:27:15.259Z,89.48
2023-01-23T08:30:12.849Z,89.39
2023-01-23T08:32:58.336Z,89.21
2023-01-23T08:35:54.499Z,89.55
2023-01-23T08:38:47.678Z,89.58
2023-01-23T08:41:41.164Z,89.69
2023-01-23T08:44:34.424Z,89.71
2023-01-23T08:47:27.670Z,89.77
2023-01-23T08:50:20.350Z,89.71
2023-01-23T08:53:13.964Z,89.69
2023-01-23T08:56:09.736Z,89.77
2023-01-23T08:59:02.679Z,89.88
2023-01-23T09:01:55.647Z,90.01
2023-01-23T09:04:42.520Z,90.07
2023-01-23T09:07:38.149Z,90.11
2023-01-23T09:10:30.996Z,89.93
2023-01-23T09:13:23.872Z,89.82
2023-01-23T09:16:17.395Z,89.98
2023-01-23T09:19:02.642Z,89.91
2023-01-23T09:21:58.037Z,89.87
2023-01-23T09:24:50.937Z,90.04
2023-01-23T09:27:44.024Z,89.85
2023-01-23T09:30:37.286Z,89.51
2023-01-23T09:33:30.511Z,89.49
2023-01-23T09:36:37.541Z,89.66
2023-01-23T09:39:33.507Z,89.69
2023-01-23T09:42:34.638Z,89.68
2023-01-23T09:45:24.635Z,89.73
2023-01-23T09:48:28.465Z,89.64
2023-01-23T09:51:20.327Z,89.78
2023-01-23T09:54:23.782Z,89.68
2023-01-23T09:57:22.555Z,89.43
2023-01-23T10:00:23.870Z,88.98
2023-01-23T10:03:18.250Z,88.74
2023-01-23T10:06:21.811Z,88.56
2023-01-23T10:09:32.194Z,88.12
2023-01-23T10:12:37.298Z,88.04
2023-01-23T10:15:41.969Z,88.03
2023-01-23T10:18:38.681Z,87.89
2023-01-23T10:21:38.572Z,87.82
2023-01-23T10:24:47.860Z,87.68
2023-01-23T10:27:44.471Z,87.39
2023-01-23T10:30:39.782Z,87.38
2023-01-23T10:33:36.082Z,87.20
2023-01-23T10:36:47.636Z,87.12
2023-01-23T10:39:56.119Z,87.04
2023-01-23T10:42:49.271Z,86.90
2023-01-23T10:45:43.578Z,86.75
2023-01-23T10:48:43.767Z,86.79
2023-01-23T10:51:48.685Z,86.57
2023-01-23T10:54:49.663Z,86.79
2023-01-23T10:58:06.948Z,86.77
2023-01-23T11:00:57.281Z,86.74
2023-01-23T11:03:50.384Z,86.60
2023-01-23T11:06:43.159Z,86.43
2023-01-23T11:09:56.762Z,86.61
2023-01-23T11:12:54.206Z,86.75
2023-01-23T11:15:51.302Z,86.96
2023-01-23T11:18:44.392Z,86.77
2023-01-23T11:21:53.423Z,87.03
2023-01-23T11:24:46.503Z,87.11
2023-01-23T11:27:40.060Z,86.92
2023-01-23T11:30:40.047Z,86.55
2023-01-23T11:33:33.591Z,86.37
2023-01-23T11:36:45.837Z,86.38
2023-01-23T11:39:51.643Z,86.42
2023-01-23T11:42:47.799Z,86.55
2023-01-23T11:45:47.792Z,86.33
2023-01-23T11:48:52.637Z,86.61
2023-01-23T11:51:55.957Z,86.27
2023-01-23T11:55:05.105Z,86.32
2023-01-23T11:58:04.029Z,86.09
2023-01-23T12:01:08.825Z,86.16
2023-01-23T12:04:33.426Z,86.07
2023-01-23T12:07:22.049Z,85.79
2023-01-23T12:10:25.455Z,85.80
2023-01-23T12:13:37.596Z,85.74
2023-01-23T12:16:41.276Z,85.89
2023-01-23T12:20:03.136Z,86.10
2023-01-23T12:23:08.279Z,85.91
2023-01-23T12:25:57.512Z,85.91
2023-01-23T12:29:07.263Z,85.66
2023-01-23T12:32:05.997Z,85.74
2023-01-23T12:35:05.610Z,85.69
2023-01-23T12:38:14.303Z,85.57
2023-01-23T12:41:10.658Z,85.39
2023-01-23T12:44:03.373Z,85.59
2023-01-23T12:47:00.392Z,85.40
2023-01-23T12:49:57.953Z,85.49
2023-01-23T12:52:55.140Z,85.32
2023-01-23T12:55:59.685Z,85.47
2023-01-23T12:58:49.709Z,85.39
2023-01-23T13:01:56.822Z,85.04
2023-01-23T13:05:06.697Z,85.37
2023-01-23T13:08:04.376Z,85.76
2023-01-23T13:11:28.735Z,85.71
2023-01-23T13:14:32.851Z,85.83
2023-01-23T13:17:39.274Z,85.90
2023-01-23T13:20:53.723Z,85.86
2023-01-23T13:23:46.852Z,85.80
2023-01-23T13:26:39.928Z,85.87
2023-01-23T13:29:49.365Z,86.08
2023-01-23T13:32:43.736Z,86.33
2023-01-23T13:35:56.373Z,86.47
2023-01-23T13:39:25.481Z,86.53
2023-01-23T13:42:46.765Z,86.86
2023-01-23T13:45:37.152Z,86.97
2023-01-23T14:23:26.520Z,88.82
2023-01-23T14:26:16.751Z,88.87
2023-01-23T14:29:24.156Z,88.90
2023-01-23T14:32:25.574Z,88.99
2023-01-23T14:35:25.263Z,88.97
2023-01-23T14:38:24.683Z,88.84
2023-01-23T14:41:28.013Z,88.77
2023-01-23T14:44:27.502Z,88.45
2023-01-23T14:47:15.651Z,88.97
2023-01-23T14:50:17.254Z,89.53
2023-01-23T14:53:07.120Z,89.56
2023-01-23T14:56:01.985Z,89.36
2023-01-23T14:58:53.581Z,89.33
2023-01-23T15:01:56.198Z,89.19
2023-01-23T15:04:33.818Z,89.04
2023-01-23T15:07:25.823Z,88.68
2023-01-23T15:10:25.501Z,88.40
2023-01-23T15:13:14.291Z,88.86
2023-01-23T15:16:19.711Z,88.97
2023-01-23T15:19:24.423Z,89.21
2023-01-23T15:22:09.110Z,89.04
2023-01-23T15:25:20.952Z,88.99
2023-01-23T15:28:40.590Z,88.95
2023-01-23T15:31:32.300Z,88.93
2023-01-23T15:34:26.345Z,89.02
2023-01-23T15:37:25.973Z,89.00
2023-01-23T15:40:27.703Z,89.20
2023-01-23T15:43:08.809Z,89.02
2023-01-23T15:46:01.844Z,89.23
2023-01-23T15:48:40.362Z,89.37
2023-01-23T15:51:33.600Z,89.48
2023-01-23T15:54:21.305Z,89.58
2023-01-23T15:57:07.664Z,89.51
2023-01-23T15:59:57.206Z,89.43
2023-01-23T16:02:39.373Z,89.40
2023-01-23T16:05:17.359Z,89.80
2023-01-23T16:07:57.741Z,89.94
2023-01-23T16:10:51.371Z,89.93
2023-01-23T16:13:44.496Z,89.71
2023-01-23T16:16:36.497Z,89.83
2023-01-23T16:19:29.273Z,89.96
2023-01-23T16:22:26.989Z,89.81
2023-01-23T16:25:41.895Z,89.81
2023-01-23T16:28:35.858Z,89.68
2023-01-23T16:31:15.201Z,89.56
2023-01-23T16:34:01.066Z,89.67
2023-01-23T16:36:36.610Z,89.59
2023-01-23T16:39:24.659Z,89.73
2023-01-23T16:42:23.612Z,89.99
2023-01-23T16:45:23.256Z,89.77
2023-01-23T16:48:01.428Z,89.71
2023-01-23T16:50:44.006Z,89.55
2023-01-23T16:53:33.064Z,89.46
2023-01-23T16:56:30.949Z,89.53
2023-01-23T16:59:29.611Z,89.40
2023-01-23T17:02:29.089Z,89.35
2023-01-23T17:05:22.591Z,89.32
2023-01-23T17:08:12.601Z,89.58
2023-01-23T17:10:46.962Z,89.54
2023-01-23T17:13:35.893Z,89.55
2023-01-23T17:16:31.315Z,89.36
2023-01-23T17:19:30.776Z,89.47
2023-01-23T17:22:24.936Z,89.55
2023-01-23T17:25:20.372Z,89.66
2023-01-23T17:28:11.155Z,89.82
2023-01-23T17:30:48.286Z,89.87
2023-01-23T17:33:42.665Z,90.07
2023-01-23T17:36:36.539Z,90.10
2023-01-23T17:39:25.804Z,90.24
2023-01-23T17:42:10.799Z,90.42
2023-01-23T17:45:06.707Z,90.59
2023-01-23T17:47:42.760Z,90.81
2023-01-23T17:50:27.208Z,90.63
2023-01-23T17:52:59.955Z,90.42
2023-01-23T17:55:54.123Z,90.32
2023-01-23T17:58:47.066Z,90.40
2023-01-23T18:01:34.310Z,90.38
2023-01-23T18:04:21.326Z,90.72
2023-01-23T18:07:16.781Z,91.05
2023-01-23T18:10:12.823Z,91.13
2023-01-23T18:13:21.616Z,91.12
2023-01-23T18:16:20.268Z,90.88
2023-01-23T18:19:18.401Z,91.06
2023-01-23T18:22:14.481Z,91.07
2023-01-23T18:25:14.164Z,91.41
2023-01-23T18:28:06.438Z,91.46
2023-01-23T18:31:00.525Z,91.94
2023-01-23T18:34:03.123Z,91.68
2023-01-23T18:37:00.904Z,91.89
2023-01-23T18:40:00.424Z,92.22
2023-01-23T18:42:46.144Z,92.25
2023-01-23T18:45:28.074Z,92.49
2023-01-23T18:48:25.919Z,92.27
2023-01-23T18:51:33.162Z,92.07
2023-01-23T18:54:26.737Z,91.93
2023-01-23T18:57:31.411Z,91.38
2023-01-23T19:00:24.210Z,91.00
2023-01-23T19:03:12.190Z,90.76
2023-01-23T19:05:45.476Z,90.99
2023-01-23T19:08:39.120Z,91.13
2023-01-23T19:11:33.556Z,91.60
2023-01-23T19:14:51.356Z,91.68
2023-01-23T19:17:52.593Z,91.43
2023-01-23T19:20:45.727Z,91.24
2023-01-23T19:23:33.935Z,90.93
2023-01-23T19:26:15.116Z,90.87
2023-01-23T19:29:21.091Z,90.37
2023-01-23T19:32:12.234Z,89.85
2023-01-23T19:35:13.781Z,90.01
2023-01-23T19:38:00.467Z,89.88
2023-01-23T19:40:53.438Z,89.90
2023-01-23T19:43:44.654Z,90.09
2023-01-23T19:46:21.310Z,90.47
2023-01-23T19:49:06.802Z,90.59
2023-01-23T19:51:49.589Z,90.70
2023-01-23T19:54:42.311Z,90.61
2023-01-23T19:57:35.076Z,90.78
2023-01-23T20:00:29.669Z,90.73
2023-01-23T20:03:22.456Z,90.89
2023-01-23T20:06:00.181Z,91.07
2023-01-23T20:08:40.108Z,91.07
2023-01-23T20:11:16.128Z,91.25
2023-01-23T20:13:52.024Z,91.28
2023-01-23T20:16:45.693Z,91.42
2023-01-23T20:19:39.746Z,91.64
2023-01-23T20:22:19.328Z,91.49
2023-01-23T20:25:05.011Z,91.49
2023-01-23T20:27:50.744Z,91.57
2023-01-23T20:30:43.561Z,91.61
2023-01-23T20:33:37.007Z,91.55
2023-01-23T20:36:29.917Z,91.58
2023-01-23T20:39:16.642Z,91.58
2023-01-23T20:42:02.020Z,91.56
2023-01-23T20:44:54.852Z,91.45
2023-01-23T20:47:51.238Z,91.73
2023-01-23T20:50:31.455Z,91.47
2023-01-23T20:53:34.241Z,91.57
2023-01-23T20:56:20.009Z,91.80
2023-01-23T20:59:25.236Z,91.99
2023-01-23T21:02:25.831Z,92.02
2023-01-23T21:05:19.452Z,91.96
2023-01-23T21:08:09.777Z,91.69
2023-01-23T21:10:56.425Z,91.85
2023-01-23T21:13:54.647Z,91.69
2023-01-23T21:16:45.411Z,91.52
2023-01-23T21:19:49.286Z,91.71
2023-01-23T21:22:42.119Z,91.76
2023-01-23T21:25:15.127Z,91.82
2023-01-23T21:28:09.757Z,91.87
2023-01-23T21:30:54.297Z,91.84
2023-01-23T21:33:47.618Z,91.73
2023-01-23T21:36:41.919Z,91.79
2023-01-23T21:39:35.368Z,91.84
2023-01-23T21:42:29.350Z,91.68
2023-01-23T21:45:14.876Z,91.90
2023-01-23T21:48:08.245Z,91.84
2023-01-23T21:51:08.739Z,91.92
2023-01-23T21:54:01.702Z,92.10
2023-01-23T21:56:47.465Z,92.28
2023-01-23T21:59:40.170Z,92.45
2023-01-23T22:02:35.678Z,92.58
2023-01-23T22:05:12.741Z,92.56
2023-01-23T22:08:07.070Z,92.81
2023-01-23T22:11:00.484Z,93.03
2023-01-23T22:13:53.342Z,92.92
2023-01-23T22:16:49.756Z,92.98
2023-01-23T22:19:36.390Z,93.10
2023-01-23T22:22:28.323Z,93.30
2023-01-23T22:25:22.097Z,93.28
2023-01-23T22:28:09.123Z,92.89
2023-01-23T22:31:08.074Z,93.00
2023-01-23T22:34:00.891Z,93.24
2023-01-23T22:36:43.681Z,93.27
2023-01-23T22:39:30.434Z,93.17
2023-01-23T22:42:23.206Z,93.15
2023-01-23T22:45:16.354Z,93.17
2023-01-23T22:48:09.610Z,93.13
2023-01-23T22:50:55.415Z,93.22
2023-01-23T22:54:08.806Z,93.17
2023-01-23T22:57:00.694Z,93.15
2023-01-23T22:59:33.546Z,93.19
2023-01-23T23:02:26.226Z,93.26
2023-01-23T23:05:19.592Z,93.34
2023-01-23T23:08:13.714Z,93.32
2023-01-23T23:11:08.469Z,93.51
2023-01-23T23:14:03.283Z,93.63
2023-01-23T23:16:48.722Z,94.01
2023-01-23T23:19:41.518Z,94.15
2023-01-23T23:22:34.742Z,94.51
2023-01-23T23:25:20.795Z,94.61
2023-01-23T23:28:13.843Z,94.59
2023-01-23T23:31:07.071Z,94.48
2023-01-23T23:33:40.596Z,94.51
2023-01-23T23:36:33.273Z,94.55
2023-01-23T23:39:14.973Z,94.69
2023-01-23T23:42:06.592Z,95.01
2023-01-23T23:44:59.585Z,95.11
2023-01-23T23:47:46.140Z,95.07
2023-01-23T23:50:39.077Z,95.18
2023-01-23T23:53:32.155Z,95.18
2023-01-23T23:56:23.175Z,95.53
2023-01-23T23:59:18.148Z,95.52
